Search for airport 
image banner adimage banner ad
image banner ad

FYFBMN - Maun

Located in Main, Namibia

ICAO - , IATA - MUB

Data provided by Airmate  

General information

Coordinates: S19°58'19" E23°25'41"
Elevation is 3195 feet MSL.
 
View others Airports in Caprivi

Operational data

Open for public use
Current time UTC:
Current local time:
Weather at : FBMN - Maun ( 0 km )
TAF: FBMN 282100Z 2900/2909 13010KT CAVOK
View NOTAMs / SUP AIP / TFR affecting this airport [VIEW]
Communications frequencies: [VIEW]

Runways:

RWY identifierQFULength (ft)Width (ft)SurfaceLDA (ft)
08-1°6562164ASPH
26-1°6562164ASPH

Airport contact information

Address: Main Namibia

Satellite view of FYFBMN